Main page
METAR-TAF:

METAR-TAF

Airports :

N'Djamena International Airport

N'Djamena, Chad

latitude: 12-08N, longitude: 015-02E, elevation: 295 m

Current weather observation

The report was made 1 hour and 10 minutes ago, at 21:00 UTC
Wind 3 kt from the North/Northwest
Temperature 23°C
Humidity 23%
Pressure 1011 hPa
Visibility: 8000 m

METAR: FTTJ 222100Z 34003KT 8000 NSC 23/01 Q1011 NOSIG

Time: 23:10 (22:10 UTC)

Forecast

The report was made 5 hours and 10 minutes ago, at 17:00 UTC
Forecast valid from 22 at 18 UTC to 23 at 24 UTC
Wind 4 kt from the North/Northwest
Visibility: 6000 m
Temporary
from 23 at 00 UTC to 23 at 07 UTC
Visibility: 4000 m
haze
Temporary
from 23 at 08 UTC to 23 at 14 UTC
Wind 10 kt from the North/Northeast
Visibility 10 km or more
no clouds below 1500 m and no cumulonimbus

TAF: FTTJ 221700Z 2218/2324 34004KT 6000 NSC TEMPO 2300/2307 4000 HZ TEMPO 2308/2314 02010KT CAVOK

Weather observations and forecasts of more than 4000 airports (METAR and TAF reports).

The available stations are represented by yellow and red dots on the map.

Hover mouse over dot to see the name of the station.

Then click to see weather observations and forecasts.

To change the map : click on the green buttons with a black cross to zoom in, on the green button with a dash to zoom out, or on the green arrows for adjacent maps.


METAR-TAF: